createdAt,value
2023-04-02T00:02:32.006Z,10.65
2023-04-02T00:12:35.727Z,10.70
2023-04-02T00:22:45.625Z,10.63
2023-04-02T00:32:49.789Z,10.74
2023-04-02T00:42:59.540Z,10.70
2023-04-02T00:53:11.902Z,10.68
2023-04-02T01:03:36.276Z,10.73
2023-04-02T01:13:47.805Z,10.61
2023-04-02T01:24:05.247Z,10.58
2023-04-02T01:34:15.777Z,10.58
2023-04-02T01:44:26.012Z,10.62
2023-04-02T01:54:31.078Z,10.65
2023-04-02T02:04:35.688Z,10.53
2023-04-02T02:14:41.250Z,10.56
2023-04-02T02:24:45.805Z,10.51
2023-04-02T02:35:01.220Z,10.47
2023-04-02T02:45:14.733Z,10.45
2023-04-02T02:55:23.134Z,10.50
2023-04-02T03:05:29.223Z,10.52
2023-04-02T03:15:41.493Z,10.49
2023-04-02T03:25:53.284Z,10.30
2023-04-02T03:36:03.755Z,10.27
2023-04-02T03:46:24.395Z,10.21
2023-04-02T03:56:34.027Z,10.35
2023-04-02T04:06:42.880Z,10.38
2023-04-02T04:16:54.987Z,10.34
2023-04-02T04:27:09.464Z,10.27
2023-04-02T04:37:25.095Z,10.27
2023-04-02T04:47:33.572Z,10.24
2023-04-02T04:57:41.074Z,10.25
2023-04-02T05:07:50.302Z,10.15
2023-04-02T05:18:09.713Z,10.27
2023-04-02T05:28:19.929Z,10.26
2023-04-02T05:38:28.979Z,10.27
2023-04-02T05:48:38.927Z,10.34
2023-04-02T05:58:49.647Z,10.45
2023-04-02T06:08:59.940Z,10.66
2023-04-02T06:19:12.474Z,10.84
2023-04-02T06:29:27.576Z,9.85
2023-04-02T06:39:32.788Z,9.38
2023-04-02T06:49:41.305Z,9.48
2023-04-02T06:59:46.729Z,8.96
2023-04-02T07:09:51.240Z,8.83
2023-04-02T07:19:56.249Z,8.84
2023-04-02T07:29:59.857Z,8.39
2023-04-02T07:40:09.069Z,8.26
2023-04-02T07:50:13.407Z,8.93
2023-04-02T08:00:20.604Z,8.97
2023-04-02T08:10:24.641Z,8.73
2023-04-02T08:20:29.676Z,8.55
2023-04-02T08:30:33.421Z,8.54
2023-04-02T08:40:42.281Z,9.27
2023-04-02T08:50:47.356Z,8.79
2023-04-02T09:00:58.097Z,9.12
2023-04-02T09:11:08.264Z,8.63
2023-04-02T09:21:32.234Z,9.05
2023-04-02T09:31:40.771Z,8.84
2023-04-02T09:41:58.784Z,9.45
2023-04-02T09:52:21.370Z,8.71
2023-04-02T10:02:31.189Z,8.87
2023-04-02T10:12:42.199Z,8.69
2023-04-02T10:22:48.851Z,8.70
2023-04-02T10:33:00.294Z,8.45
2023-04-02T10:43:52.124Z,8.29
2023-04-02T10:54:03.905Z,8.77
2023-04-02T11:04:19.710Z,9.05
2023-04-02T11:14:26.689Z,8.57
2023-04-02T11:24:44.576Z,9.17
2023-04-02T11:35:38.101Z,9.12
2023-04-02T11:45:59.377Z,8.64
2023-04-02T11:56:23.747Z,8.68
2023-04-02T12:06:46.855Z,8.80
2023-04-02T12:16:52.190Z,8.85
2023-04-02T12:27:14.957Z,8.58
2023-04-02T12:37:24.095Z,8.66
2023-04-02T12:47:30.469Z,8.40
2023-04-02T12:57:39.876Z,8.40
2023-04-02T13:07:48.657Z,8.16
2023-04-02T13:18:07.192Z,8.36
2023-04-02T13:28:12.441Z,8.32
2023-04-02T13:38:22.619Z,8.09
2023-04-02T13:48:31.121Z,7.67
2023-04-02T13:58:34.996Z,8.16
2023-04-02T14:08:57.034Z,8.09
2023-04-02T14:19:22.125Z,7.61
2023-04-02T14:29:33.720Z,7.76
2023-04-02T14:39:46.796Z,7.46
2023-04-02T14:49:56.120Z,7.38
2023-04-02T15:00:05.651Z,7.22
2023-04-02T15:10:23.539Z,7.39
2023-04-02T15:20:39.328Z,7.53
2023-04-02T15:30:46.109Z,7.33
2023-04-02T15:40:56.708Z,6.87
2023-04-02T15:51:16.667Z,7.02
2023-04-02T16:01:32.873Z,7.06
2023-04-02T16:11:39.466Z,7.04
2023-04-02T16:21:50.105Z,6.77
2023-04-02T16:32:03.199Z,6.97
2023-04-02T16:42:19.350Z,7.18
2023-04-02T16:52:40.825Z,6.94
2023-04-02T17:03:01.623Z,7.01
2023-04-02T17:13:20.482Z,6.82
2023-04-02T17:23:26.193Z,6.78
2023-04-02T17:33:32.232Z,6.86
2023-04-02T17:43:44.714Z,6.73
2023-04-02T17:54:06.978Z,6.49
2023-04-02T18:04:29.337Z,6.73
2023-04-02T18:14:52.621Z,6.48
2023-04-02T18:25:19.620Z,6.59
2023-04-02T18:35:28.457Z,6.69
2023-04-02T18:45:47.082Z,6.51
2023-04-02T18:55:58.102Z,6.79
2023-04-02T19:06:05.894Z,6.52
2023-04-02T19:16:34.501Z,6.51
2023-04-02T19:26:47.036Z,6.71
2023-04-02T19:36:57.180Z,6.64
2023-04-02T19:47:01.104Z,6.52
2023-04-02T19:57:06.646Z,6.43
2023-04-02T20:07:10.489Z,6.40
2023-04-02T20:17:15.529Z,5.98
2023-04-02T20:27:19.445Z,5.79
2023-04-02T20:37:25.617Z,5.77
2023-04-02T20:47:29.396Z,5.51
2023-04-02T20:57:34.552Z,5.58
2023-04-02T21:07:38.603Z,5.52
2023-04-02T21:17:43.708Z,5.33
2023-04-02T21:27:47.718Z,5.37
2023-04-02T21:37:53.221Z,5.39
2023-04-02T21:47:57.132Z,5.53
2023-04-02T21:58:02.458Z,5.22
2023-04-02T22:08:06.692Z,5.46
2023-04-02T22:18:11.686Z,5.25
2023-04-02T22:28:15.379Z,5.35
2023-04-02T22:38:20.669Z,5.51
2023-04-02T22:48:24.432Z,5.30
2023-04-02T22:58:29.746Z,5.23
2023-04-02T23:08:33.413Z,5.59
2023-04-02T23:18:40.321Z,5.52
2023-04-02T23:28:44.575Z,5.40
2023-04-02T23:38:49.761Z,5.31
2023-04-02T23:48:54.531Z,5.63
2023-04-02T23:58:59.642Z,5.59
